sensor_id;sensor_type;location;lat;lon;timestamp;pressure;altitude;pressure_sealevel;temperature;humidity
74218;BME280;62579;47.288;18.646;2022-12-11T00:02:10;97929.34;;;1.74;98.13
74218;BME280;62579;47.288;18.646;2022-12-11T00:04:36;97945.44;;;1.74;97.66
74218;BME280;62579;47.288;18.646;2022-12-11T00:07:01;97932.25;;;1.70;98.12
74218;BME280;62579;47.288;18.646;2022-12-11T00:09:26;97917.91;;;1.79;97.89
74218;BME280;62579;47.288;18.646;2022-12-11T00:11:52;97921.28;;;1.68;97.64
74218;BME280;62579;47.288;18.646;2022-12-11T00:14:17;97922.28;;;1.71;98.55
74218;BME280;62579;47.288;18.646;2022-12-11T00:16:43;97942.75;;;1.68;98.29
74218;BME280;62579;47.288;18.646;2022-12-11T00:19:08;97923.75;;;1.72;98.19
74218;BME280;62579;47.288;18.646;2022-12-11T00:21:33;97941.78;;;1.71;98.15
74218;BME280;62579;47.288;18.646;2022-12-11T00:23:59;97937.38;;;1.68;97.98
74218;BME280;62579;47.288;18.646;2022-12-11T00:26:24;97925.19;;;1.73;98.12
74218;BME280;62579;47.288;18.646;2022-12-11T00:28:55;97920.56;;;1.73;98.06
74218;BME280;62579;47.288;18.646;2022-12-11T00:31:21;97916.69;;;1.74;98.20
74218;BME280;62579;47.288;18.646;2022-12-11T00:33:47;97916.94;;;1.76;98.34
74218;BME280;62579;47.288;18.646;2022-12-11T00:36:24;97927.13;;;1.67;97.89
74218;BME280;62579;47.288;18.646;2022-12-11T00:38:51;97927.13;;;1.61;98.15
74218;BME280;62579;47.288;18.646;2022-12-11T00:41:17;97937.13;;;1.66;98.13
74218;BME280;62579;47.288;18.646;2022-12-11T00:43:43;97946.31;;;1.54;98.59
74218;BME280;62579;47.288;18.646;2022-12-11T00:46:09;97956.59;;;1.56;98.31
74218;BME280;62579;47.288;18.646;2022-12-11T00:48:35;97939.03;;;1.55;98.27
74218;BME280;62579;47.288;18.646;2022-12-11T00:51:00;97934.63;;;1.52;97.92
74218;BME280;62579;47.288;18.646;2022-12-11T00:53:26;97938.97;;;1.44;98.30
74218;BME280;62579;47.288;18.646;2022-12-11T00:55:51;97947.19;;;1.29;98.57
74218;BME280;62579;47.288;18.646;2022-12-11T00:58:17;97967.44;;;1.36;98.17
74218;BME280;62579;47.288;18.646;2022-12-11T01:00:42;97952.06;;;1.31;98.01
74218;BME280;62579;47.288;18.646;2022-12-11T01:03:10;97953.00;;;1.28;98.32
74218;BME280;62579;47.288;18.646;2022-12-11T01:05:37;97949.34;;;1.25;98.28
74218;BME280;62579;47.288;18.646;2022-12-11T01:08:02;97950.81;;;1.26;98.64
74218;BME280;62579;47.288;18.646;2022-12-11T01:10:27;97955.66;;;1.22;98.58
74218;BME280;62579;47.288;18.646;2022-12-11T01:13:05;97978.31;;;1.21;98.50
74218;BME280;62579;47.288;18.646;2022-12-11T01:15:39;97978.53;;;1.17;99.02
74218;BME280;62579;47.288;18.646;2022-12-11T01:18:04;97978.56;;;1.23;98.77
74218;BME280;62579;47.288;18.646;2022-12-11T01:20:30;97982.19;;;1.20;98.55
74218;BME280;62579;47.288;18.646;2022-12-11T01:22:58;97988.97;;;1.10;99.08
74218;BME280;62579;47.288;18.646;2022-12-11T01:25:24;97993.31;;;1.07;99.03
74218;BME280;62579;47.288;18.646;2022-12-11T01:27:51;97992.78;;;1.03;99.22
74218;BME280;62579;47.288;18.646;2022-12-11T01:30:17;97990.66;;;1.07;99.05
74218;BME280;62579;47.288;18.646;2022-12-11T01:32:43;97995.97;;;1.02;99.33
74218;BME280;62579;47.288;18.646;2022-12-11T01:35:10;97996.87;;;0.93;99.50
74218;BME280;62579;47.288;18.646;2022-12-11T01:37:36;97994.69;;;0.97;99.39
74218;BME280;62579;47.288;18.646;2022-12-11T01:40:02;97988.09;;;0.93;99.42
74218;BME280;62579;47.288;18.646;2022-12-11T01:42:28;98001.03;;;1.00;99.43
74218;BME280;62579;47.288;18.646;2022-12-11T01:45:15;98006.09;;;0.92;99.26
74218;BME280;62579;47.288;18.646;2022-12-11T01:47:59;98006.34;;;0.89;99.65
74218;BME280;62579;47.288;18.646;2022-12-11T01:50:27;97996.56;;;0.86;99.83
74218;BME280;62579;47.288;18.646;2022-12-11T01:52:53;97994.16;;;0.88;99.61
74218;BME280;62579;47.288;18.646;2022-12-11T01:55:19;97990.44;;;0.80;99.95
74218;BME280;62579;47.288;18.646;2022-12-11T01:57:47;97997.28;;;0.86;99.64
74218;BME280;62579;47.288;18.646;2022-12-11T02:00:14;97996.53;;;0.80;99.77
74218;BME280;62579;47.288;18.646;2022-12-11T02:02:39;97986.75;;;0.77;99.96
74218;BME280;62579;47.288;18.646;2022-12-11T02:05:06;97970.69;;;0.77;99.94
74218;BME280;62579;47.288;18.646;2022-12-11T02:07:38;97976.84;;;0.83;99.65
74218;BME280;62579;47.288;18.646;2022-12-11T02:10:06;97980.19;;;0.78;99.77
74218;BME280;62579;47.288;18.646;2022-12-11T02:12:42;97985.03;;;0.74;100.00
74218;BME280;62579;47.288;18.646;2022-12-11T02:29:38;97970.94;;;0.79;99.57
74218;BME280;62579;47.288;18.646;2022-12-11T02:32:29;97968.28;;;0.79;99.72
74218;BME280;62579;47.288;18.646;2022-12-11T02:35:10;97960.94;;;0.74;99.72
74218;BME280;62579;47.288;18.646;2022-12-11T02:37:40;97966.34;;;0.80;99.30
74218;BME280;62579;47.288;18.646;2022-12-11T02:40:10;97964.84;;;0.79;99.62
74218;BME280;62579;47.288;18.646;2022-12-11T02:42:39;97961.19;;;0.76;99.55
74218;BME280;62579;47.288;18.646;2022-12-11T02:45:07;97965.59;;;0.79;99.16
74218;BME280;62579;47.288;18.646;2022-12-11T02:47:33;97960.25;;;0.79;99.55
74218;BME280;62579;47.288;18.646;2022-12-11T02:50:01;97961.44;;;0.78;99.36
74218;BME280;62579;47.288;18.646;2022-12-11T02:52:28;97960.50;;;0.81;99.46
74218;BME280;62579;47.288;18.646;2022-12-11T02:54:56;97961.44;;;0.78;99.63
74218;BME280;62579;47.288;18.646;2022-12-11T02:57:32;97968.47;;;0.76;99.65
74218;BME280;62579;47.288;18.646;2022-12-11T03:00:00;97960.44;;;0.76;99.49
74218;BME280;62579;47.288;18.646;2022-12-11T03:02:25;97965.13;;;0.81;99.24
74218;BME280;62579;47.288;18.646;2022-12-11T03:04:51;97950.28;;;0.80;99.26
74218;BME280;62579;47.288;18.646;2022-12-11T03:07:23;97959.03;;;0.80;99.08
74218;BME280;62579;47.288;18.646;2022-12-11T03:09:49;97951.50;;;0.84;98.69
74218;BME280;62579;47.288;18.646;2022-12-11T03:12:23;97947.62;;;0.85;98.69
74218;BME280;62579;47.288;18.646;2022-12-11T03:14:51;97948.38;;;0.86;98.59
74218;BME280;62579;47.288;18.646;2022-12-11T03:17:22;97934.19;;;0.80;98.59
74218;BME280;62579;47.288;18.646;2022-12-11T03:20:00;97943.47;;;0.84;98.58
74218;BME280;62579;47.288;18.646;2022-12-11T03:25:43;97953.50;;;0.89;98.13
74218;BME280;62579;47.288;18.646;2022-12-11T03:28:12;97925.97;;;0.83;98.26
74218;BME280;62579;47.288;18.646;2022-12-11T03:30:40;97924.78;;;0.90;98.07
74218;BME280;62579;47.288;18.646;2022-12-11T03:33:22;97942.56;;;0.93;97.48
74218;BME280;62579;47.288;18.646;2022-12-11T03:35:54;97957.66;;;0.90;97.68
74218;BME280;62579;47.288;18.646;2022-12-11T03:38:27;97945.78;;;0.97;96.96
74218;BME280;62579;47.288;18.646;2022-12-11T03:40:57;97955.06;;;1.01;96.64
74218;BME280;62579;47.288;18.646;2022-12-11T03:43:25;97966.97;;;1.00;97.00
74218;BME280;62579;47.288;18.646;2022-12-11T03:45:52;97955.75;;;0.96;96.81
74218;BME280;62579;47.288;18.646;2022-12-11T03:48:19;97965.47;;;0.94;96.71
74218;BME280;62579;47.288;18.646;2022-12-11T03:50:46;97961.56;;;0.95;96.89
74218;BME280;62579;47.288;18.646;2022-12-11T03:53:14;97972.31;;;1.00;97.26
74218;BME280;62579;47.288;18.646;2022-12-11T03:55:41;97967.69;;;1.01;96.87
74218;BME280;62579;47.288;18.646;2022-12-11T03:58:07;97978.16;;;0.99;96.75
74218;BME280;62579;47.288;18.646;2022-12-11T04:00:32;97948.91;;;0.95;96.76
74218;BME280;62579;47.288;18.646;2022-12-11T04:02:58;97961.34;;;0.98;96.44
74218;BME280;62579;47.288;18.646;2022-12-11T04:05:47;97977.44;;;0.98;96.47
74218;BME280;62579;47.288;18.646;2022-12-11T04:08:13;97980.34;;;1.00;96.58
74218;BME280;62579;47.288;18.646;2022-12-11T04:10:39;97982.78;;;0.98;96.53
74218;BME280;62579;47.288;18.646;2022-12-11T04:13:05;97995.19;;;0.96;96.77
74218;BME280;62579;47.288;18.646;2022-12-11T04:15:30;97984.69;;;0.92;97.22
74218;BME280;62579;47.288;18.646;2022-12-11T04:17:56;97980.06;;;0.93;96.76
74218;BME280;62579;47.288;18.646;2022-12-11T04:20:40;97973.72;;;0.90;97.17
74218;BME280;62579;47.288;18.646;2022-12-11T04:23:24;97975.19;;;0.91;97.28
74218;BME280;62579;47.288;18.646;2022-12-11T04:26:11;97965.19;;;0.92;97.47
74218;BME280;62579;47.288;18.646;2022-12-11T04:28:37;98013.84;;;0.85;97.80
74218;BME280;62579;47.288;18.646;2022-12-11T04:31:03;97996.81;;;0.88;97.35
74218;BME280;62579;47.288;18.646;2022-12-11T04:33:29;97994.09;;;0.82;97.63
74218;BME280;62579;47.288;18.646;2022-12-11T04:35:59;98025.28;;;0.85;97.98
74218;BME280;62579;47.288;18.646;2022-12-11T04:38:25;98005.31;;;0.86;97.58
74218;BME280;62579;47.288;18.646;2022-12-11T04:41:06;98015.50;;;0.82;97.83
74218;BME280;62579;47.288;18.646;2022-12-11T04:43:32;98016.00;;;0.81;97.41
74218;BME280;62579;47.288;18.646;2022-12-11T04:46:18;98002.13;;;0.82;98.06
74218;BME280;62579;47.288;18.646;2022-12-11T04:48:45;98016.94;;;0.78;98.10
74218;BME280;62579;47.288;18.646;2022-12-11T04:51:10;98032.53;;;0.79;97.89
74218;BME280;62579;47.288;18.646;2022-12-11T04:53:36;98046.44;;;0.83;97.40
74218;BME280;62579;47.288;18.646;2022-12-11T04:56:10;98031.84;;;0.84;97.67
74218;BME280;62579;47.288;18.646;2022-12-11T04:58:36;98033.78;;;0.84;97.83
74218;BME280;62579;47.288;18.646;2022-12-11T05:01:15;98036.44;;;0.84;97.58
74218;BME280;62579;47.288;18.646;2022-12-11T05:03:41;98031.62;;;0.88;97.47
74218;BME280;62579;47.288;18.646;2022-12-11T05:06:07;98042.81;;;0.86;97.18
74218;BME280;62579;47.288;18.646;2022-12-11T05:08:34;98048.91;;;0.87;97.46
74218;BME280;62579;47.288;18.646;2022-12-11T05:11:02;98039.72;;;0.93;96.41
74218;BME280;62579;47.288;18.646;2022-12-11T05:13:28;98039.19;;;0.89;97.36
74218;BME280;62579;47.288;18.646;2022-12-11T05:15:54;98040.41;;;0.88;97.56
74218;BME280;62579;47.288;18.646;2022-12-11T05:18:20;98048.91;;;0.87;97.05
74218;BME280;62579;47.288;18.646;2022-12-11T05:20:56;98047.00;;;0.93;97.04
74218;BME280;62579;47.288;18.646;2022-12-11T05:23:23;98046.53;;;0.94;97.01
74218;BME280;62579;47.288;18.646;2022-12-11T05:25:56;98035.31;;;0.90;97.02
74218;BME280;62579;47.288;18.646;2022-12-11T05:28:22;98064.50;;;0.88;96.81
74218;BME280;62579;47.288;18.646;2022-12-11T05:31:01;98042.81;;;0.86;97.27
74218;BME280;62579;47.288;18.646;2022-12-11T05:33:28;98031.19;;;0.95;96.78
74218;BME280;62579;47.288;18.646;2022-12-11T05:35:54;98038.22;;;0.92;97.07
74218;BME280;62579;47.288;18.646;2022-12-11T05:38:20;98041.16;;;0.89;97.20
74218;BME280;62579;47.288;18.646;2022-12-11T05:40:57;98040.41;;;0.88;97.18
74218;BME280;62579;47.288;18.646;2022-12-11T05:43:23;98047.75;;;0.93;96.77
74218;BME280;62579;47.288;18.646;2022-12-11T05:45:49;98043.38;;;0.96;96.75
74218;BME280;62579;47.288;18.646;2022-12-11T05:48:14;98049.69;;;0.93;96.05
74218;BME280;62579;47.288;18.646;2022-12-11T05:50:39;98035.31;;;0.90;97.07
74218;BME280;62579;47.288;18.646;2022-12-11T05:53:05;98053.56;;;0.92;96.58
74218;BME280;62579;47.288;18.646;2022-12-11T05:55:33;98056.72;;;0.90;96.87
74218;BME280;62579;47.288;18.646;2022-12-11T05:57:59;98062.34;;;0.92;96.57
74218;BME280;62579;47.288;18.646;2022-12-11T06:00:24;98062.81;;;0.91;96.73
74218;BME280;62579;47.288;18.646;2022-12-11T06:02:49;98066.69;;;0.90;96.57
74218;BME280;62579;47.288;18.646;2022-12-11T06:05:15;98080.03;;;0.84;97.07
74218;BME280;62579;47.288;18.646;2022-12-11T06:07:40;98075.91;;;0.83;97.23
74218;BME280;62579;47.288;18.646;2022-12-11T06:10:06;98068.88;;;0.86;96.49
74218;BME280;62579;47.288;18.646;2022-12-11T06:12:31;98094.69;;;0.89;96.51
74218;BME280;62579;47.288;18.646;2022-12-11T06:14:56;98085.66;;;0.86;97.02
74218;BME280;62579;47.288;18.646;2022-12-11T06:17:22;98084.19;;;0.85;96.30
74218;BME280;62579;47.288;18.646;2022-12-11T06:19:47;98090.00;;;0.84;96.55
74218;BME280;62579;47.288;18.646;2022-12-11T06:22:13;98101.94;;;0.83;96.75
74218;BME280;62579;47.288;18.646;2022-12-11T06:24:38;98120.47;;;0.86;96.51
74218;BME280;62579;47.288;18.646;2022-12-11T06:27:03;98096.78;;;0.79;96.74
74218;BME280;62579;47.288;18.646;2022-12-11T06:29:29;98101.19;;;0.82;96.72
74218;BME280;62579;47.288;18.646;2022-12-11T06:31:54;98114.38;;;0.86;96.16
74218;BME280;62579;47.288;18.646;2022-12-11T06:34:19;98115.38;;;0.88;96.08
74218;BME280;62579;47.288;18.646;2022-12-11T06:36:45;98126.56;;;0.87;95.75
74218;BME280;62579;47.288;18.646;2022-12-11T06:39:10;98120.31;;;0.95;95.57
74218;BME280;62579;47.288;18.646;2022-12-11T06:41:36;98131.56;;;0.99;95.01
74218;BME280;62579;47.288;18.646;2022-12-11T06:44:01;98115.44;;;0.94;95.27
74218;BME280;62579;47.288;18.646;2022-12-11T06:46:27;98132.28;;;1.00;94.25
74218;BME280;62579;47.288;18.646;2022-12-11T06:48:52;98125.78;;;1.06;94.15
74218;BME280;62579;47.288;18.646;2022-12-11T06:51:19;98123.34;;;1.08;93.55
74218;BME280;62579;47.288;18.646;2022-12-11T06:53:50;98102.66;;;1.09;93.16
74218;BME280;62579;47.288;18.646;2022-12-11T06:56:16;98141.37;;;1.08;92.96
74218;BME280;62579;47.288;18.646;2022-12-11T06:58:42;98120.69;;;1.08;92.45
74218;BME280;62579;47.288;18.646;2022-12-11T07:03:44;98134.19;;;1.19;92.49
74218;BME280;62579;47.288;18.646;2022-12-11T07:06:09;98143.91;;;1.17;92.23
74218;BME280;62579;47.288;18.646;2022-12-11T07:08:35;98143.00;;;1.26;91.38
74218;BME280;62579;47.288;18.646;2022-12-11T07:11:05;98141.78;;;1.27;91.31
74218;BME280;62579;47.288;18.646;2022-12-11T07:13:31;98170.78;;;1.28;91.12
74218;BME280;62579;47.288;18.646;2022-12-11T07:15:58;98160.81;;;1.29;91.43
74218;BME280;62579;47.288;18.646;2022-12-11T07:18:25;98177.41;;;1.33;91.71
74218;BME280;62579;47.288;18.646;2022-12-11T07:20:50;98167.44;;;1.33;91.81
74218;BME280;62579;47.288;18.646;2022-12-11T07:23:15;98175.47;;;1.33;90.91
74218;BME280;62579;47.288;18.646;2022-12-11T07:25:41;98174.78;;;1.38;91.19
74218;BME280;62579;47.288;18.646;2022-12-11T07:28:06;98184.06;;;1.43;90.06
74218;BME280;62579;47.288;18.646;2022-12-11T07:30:31;98201.13;;;1.40;90.28
74218;BME280;62579;47.288;18.646;2022-12-11T07:32:56;98182.66;;;1.47;90.18
74218;BME280;62579;47.288;18.646;2022-12-11T07:35:22;98189.91;;;1.41;89.93
74218;BME280;62579;47.288;18.646;2022-12-11T07:37:47;98200.63;;;1.41;90.16
74218;BME280;62579;47.288;18.646;2022-12-11T07:40:12;98218.19;;;1.42;89.12
74218;BME280;62579;47.288;18.646;2022-12-11T07:42:38;98214.34;;;1.49;89.45
74218;BME280;62579;47.288;18.646;2022-12-11T07:45:03;98238.00;;;1.50;88.93
74218;BME280;62579;47.288;18.646;2022-12-11T07:47:29;98225.13;;;1.54;89.72
74218;BME280;62579;47.288;18.646;2022-12-11T07:49:54;98234.66;;;1.55;88.99
74218;BME280;62579;47.288;18.646;2022-12-11T07:52:19;98225.84;;;1.55;89.35
74218;BME280;62579;47.288;18.646;2022-12-11T07:54:45;98237.78;;;1.54;87.53
74218;BME280;62579;47.288;18.646;2022-12-11T07:57:10;98229.22;;;1.50;88.56
74218;BME280;62579;47.288;18.646;2022-12-11T07:59:35;98243.13;;;1.54;88.37
74218;BME280;62579;47.288;18.646;2022-12-11T08:02:01;98273.63;;;1.56;88.96
74218;BME280;62579;47.288;18.646;2022-12-11T08:04:26;98273.13;;;1.52;87.62
74218;BME280;62579;47.288;18.646;2022-12-11T08:06:51;98242.19;;;1.57;87.57
74218;BME280;62579;47.288;18.646;2022-12-11T08:09:17;98249.50;;;1.56;88.64
74218;BME280;62579;47.288;18.646;2022-12-11T08:11:50;98249.28;;;1.60;87.93
74218;BME280;62579;47.288;18.646;2022-12-11T08:14:16;98267.56;;;1.56;87.88
74218;BME280;62579;47.288;18.646;2022-12-11T08:16:41;98271.28;;;1.64;87.42
74218;BME280;62579;47.288;18.646;2022-12-11T08:19:09;98260.06;;;1.65;87.48
74218;BME280;62579;47.288;18.646;2022-12-11T08:21:35;98266.62;;;1.64;87.32
74218;BME280;62579;47.288;18.646;2022-12-11T08:24:00;98271.75;;;1.62;86.69
74218;BME280;62579;47.288;18.646;2022-12-11T08:26:28;98284.75;;;1.69;86.94
74218;BME280;62579;47.288;18.646;2022-12-11T08:28:54;98302.50;;;1.67;86.36
74218;BME280;62579;47.288;18.646;2022-12-11T08:31:20;98296.66;;;1.68;87.44
74218;BME280;62579;47.288;18.646;2022-12-11T08:33:47;98278.37;;;1.67;86.90
74218;BME280;62579;47.288;18.646;2022-12-11T08:36:15;98279.09;;;1.67;87.59
74218;BME280;62579;47.288;18.646;2022-12-11T08:38:40;98279.59;;;1.66;87.12
74218;BME280;62579;47.288;18.646;2022-12-11T08:41:21;98296.13;;;1.64;87.52
74218;BME280;62579;47.288;18.646;2022-12-11T08:43:46;98285.41;;;1.64;87.64
74218;BME280;62579;47.288;18.646;2022-12-11T08:46:13;98274.69;;;1.64;87.32
74218;BME280;62579;47.288;18.646;2022-12-11T08:48:40;98280.03;;;1.64;87.98
74218;BME280;62579;47.288;18.646;2022-12-11T08:51:08;98272.97;;;1.61;87.75
74218;BME280;62579;47.288;18.646;2022-12-11T08:53:34;98297.62;;;1.65;86.76
74218;BME280;62579;47.288;18.646;2022-12-11T08:56:05;98313.91;;;1.62;86.91
74218;BME280;62579;47.288;18.646;2022-12-11T08:58:31;98308.59;;;1.67;88.09
74218;BME280;62579;47.288;18.646;2022-12-11T09:00:56;98322.50;;;1.66;86.28
74218;BME280;62579;47.288;18.646;2022-12-11T09:03:22;98301.78;;;1.66;86.84
74218;BME280;62579;47.288;18.646;2022-12-11T09:05:48;98304.97;;;1.70;87.22
74218;BME280;62579;47.288;18.646;2022-12-11T09:08:13;98326.22;;;1.74;85.93
74218;BME280;62579;47.288;18.646;2022-12-11T09:10:38;98326.69;;;1.72;86.48
74218;BME280;62579;47.288;18.646;2022-12-11T09:13:04;98350.09;;;1.72;85.98
74218;BME280;62579;47.288;18.646;2022-12-11T09:15:29;98319.97;;;1.83;86.86
74218;BME280;62579;47.288;18.646;2022-12-11T09:17:54;98330.28;;;1.90;86.39
74218;BME280;62579;47.288;18.646;2022-12-11T09:20:20;98329.53;;;1.89;86.84
74218;BME280;62579;47.288;18.646;2022-12-11T09:22:45;98339.06;;;1.90;86.46
74218;BME280;62579;47.288;18.646;2022-12-11T09:25:10;98340.50;;;1.91;86.06
74218;BME280;62579;47.288;18.646;2022-12-11T09:27:36;98335.88;;;1.92;86.71
74218;BME280;62579;47.288;18.646;2022-12-11T09:30:01;98340.06;;;1.93;86.40
74218;BME280;62579;47.288;18.646;2022-12-11T09:32:26;98339.31;;;1.92;86.40
74218;BME280;62579;47.288;18.646;2022-12-11T09:34:52;98333.06;;;2.01;85.66
74218;BME280;62579;47.288;18.646;2022-12-11T09:37:17;98342.78;;;1.98;86.46
74218;BME280;62579;47.288;18.646;2022-12-11T09:39:43;98331.63;;;2.05;87.60
74218;BME280;62579;47.288;18.646;2022-12-11T09:42:22;98332.63;;;2.08;86.22
74218;BME280;62579;47.288;18.646;2022-12-11T09:44:53;98324.56;;;2.08;85.95
74218;BME280;62579;47.288;18.646;2022-12-11T09:49:46;98336.16;;;2.19;85.79
74218;BME280;62579;47.288;18.646;2022-12-11T09:52:19;98326.84;;;2.15;86.19
74218;BME280;62579;47.288;18.646;2022-12-11T09:54:58;98320.53;;;2.18;86.04
74218;BME280;62579;47.288;18.646;2022-12-11T10:08:47;98328.16;;;2.25;86.08
74218;BME280;62579;47.288;18.646;2022-12-11T10:11:39;98322.97;;;2.21;85.38
74218;BME280;62579;47.288;18.646;2022-12-11T10:17:16;98312.78;;;2.25;86.12
74218;BME280;62579;47.288;18.646;2022-12-11T10:19:43;98316.13;;;2.15;84.68
74218;BME280;62579;47.288;18.646;2022-12-11T10:22:19;98312.94;;;2.16;85.34
74218;BME280;62579;47.288;18.646;2022-12-11T10:25:02;98333.38;;;2.08;84.17
74218;BME280;62579;47.288;18.646;2022-12-11T10:27:29;98336.31;;;2.10;85.40
74218;BME280;62579;47.288;18.646;2022-12-11T10:32:49;98372.97;;;2.19;84.94
74218;BME280;62579;47.288;18.646;2022-12-11T10:35:41;98365.50;;;2.28;84.15
74218;BME280;62579;47.288;18.646;2022-12-11T10:38:13;98357.91;;;2.27;84.90
74218;BME280;62579;47.288;18.646;2022-12-11T10:40:43;98365.13;;;2.41;83.62
74218;BME280;62579;47.288;18.646;2022-12-11T10:43:09;98343.84;;;2.37;83.85
74218;BME280;62579;47.288;18.646;2022-12-11T10:45:35;98347.53;;;2.40;82.24
74218;BME280;62579;47.288;18.646;2022-12-11T10:48:03;98340.97;;;2.41;83.25
74218;BME280;62579;47.288;18.646;2022-12-11T10:50:32;98365.88;;;2.41;82.77
74218;BME280;62579;47.288;18.646;2022-12-11T10:52:57;98363.91;;;2.42;83.26
74218;BME280;62579;47.288;18.646;2022-12-11T10:55:43;98359.59;;;2.50;83.34
74218;BME280;62579;47.288;18.646;2022-12-11T10:58:18;98355.88;;;2.42;83.06
74218;BME280;62579;47.288;18.646;2022-12-11T11:00:45;98354.44;;;2.47;82.73
74218;BME280;62579;47.288;18.646;2022-12-11T11:03:25;98346.63;;;2.49;84.30
74218;BME280;62579;47.288;18.646;2022-12-11T11:06:13;98356.91;;;2.50;82.48
74218;BME280;62579;47.288;18.646;2022-12-11T11:08:42;98341.75;;;2.47;81.94
74218;BME280;62579;47.288;18.646;2022-12-11T11:14:09;98328.81;;;2.51;82.28
74218;BME280;62579;47.288;18.646;2022-12-11T11:16:37;98331.81;;;2.59;83.07
74218;BME280;62579;47.288;18.646;2022-12-11T11:19:04;98333.78;;;2.64;83.34
74218;BME280;62579;47.288;18.646;2022-12-11T11:21:31;98334.44;;;2.53;81.58
74218;BME280;62579;47.288;18.646;2022-12-11T11:23:57;98351.75;;;2.47;82.12
74218;BME280;62579;47.288;18.646;2022-12-11T11:26:22;98347.03;;;2.36;81.27
74218;BME280;62579;47.288;18.646;2022-12-11T11:28:51;98352.41;;;2.36;82.89
74218;BME280;62579;47.288;18.646;2022-12-11T11:31:19;98330.47;;;2.43;82.53
74218;BME280;62579;47.288;18.646;2022-12-11T11:34:03;98346.37;;;2.47;83.22
74218;BME280;62579;47.288;18.646;2022-12-11T11:36:32;98350.31;;;2.51;81.31
74218;BME280;62579;47.288;18.646;2022-12-11T11:42:09;98326.84;;;2.46;81.34
74218;BME280;62579;47.288;18.646;2022-12-11T11:45:02;98328.53;;;2.43;81.75
74218;BME280;62579;47.288;18.646;2022-12-11T11:47:34;98345.66;;;2.52;80.79
74218;BME280;62579;47.288;18.646;2022-12-11T11:50:10;98368.81;;;2.43;80.86
74218;BME280;62579;47.288;18.646;2022-12-11T11:52:42;98351.53;;;2.50;81.54
74218;BME280;62579;47.288;18.646;2022-12-11T11:55:36;98363.78;;;2.57;82.21
74218;BME280;62579;47.288;18.646;2022-12-11T11:58:14;98372.13;;;2.64;81.37
74218;BME280;62579;47.288;18.646;2022-12-11T12:00:41;98365.41;;;2.49;80.52
74218;BME280;62579;47.288;18.646;2022-12-11T12:03:10;98354.50;;;2.58;80.55
74218;BME280;62579;47.288;18.646;2022-12-11T12:06:05;98345.00;;;2.62;80.77
74218;BME280;62579;47.288;18.646;2022-12-11T12:08:59;98365.75;;;2.62;79.64
74218;BME280;62579;47.288;18.646;2022-12-11T12:11:30;98362.28;;;2.56;79.56
74218;BME280;62579;47.288;18.646;2022-12-11T12:17:05;98368.59;;;2.47;79.90
74218;BME280;62579;47.288;18.646;2022-12-11T12:20:00;98375.88;;;2.41;80.37
74218;BME280;62579;47.288;18.646;2022-12-11T12:25:38;98406.38;;;2.43;80.60
74218;BME280;62579;47.288;18.646;2022-12-11T12:34:01;98364.44;;;2.46;80.03
74218;BME280;62579;47.288;18.646;2022-12-11T12:36:44;98378.16;;;2.54;81.60
74218;BME280;62579;47.288;18.646;2022-12-11T12:39:20;98359.19;;;2.63;81.89
74218;BME280;62579;47.288;18.646;2022-12-11T12:42:55;98379.63;;;2.55;79.83
74218;BME280;62579;47.288;18.646;2022-12-11T12:47:31;98384.13;;;2.37;79.94
74218;BME280;62579;47.288;18.646;2022-12-11T12:49:58;98393.16;;;2.40;80.99
74218;BME280;62579;47.288;18.646;2022-12-11T12:52:31;98407.28;;;2.35;81.81
74218;BME280;62579;47.288;18.646;2022-12-11T12:55:00;98415.50;;;2.26;80.84
74218;BME280;62579;47.288;18.646;2022-12-11T12:57:52;98425.75;;;2.27;81.09
74218;BME280;62579;47.288;18.646;2022-12-11T13:00:34;98429.13;;;2.22;81.38
74218;BME280;62579;47.288;18.646;2022-12-11T13:03:17;98441.81;;;2.22;81.06
74218;BME280;62579;47.288;18.646;2022-12-11T13:06:05;98447.06;;;2.11;81.08
74218;BME280;62579;47.288;18.646;2022-12-11T13:08:49;98468.94;;;2.04;81.76
74218;BME280;62579;47.288;18.646;2022-12-11T13:11:19;98471.22;;;2.11;82.50
74218;BME280;62579;47.288;18.646;2022-12-11T13:14:20;98467.28;;;2.06;82.42
74218;BME280;62579;47.288;18.646;2022-12-11T13:16:51;98468.16;;;1.98;80.85
74218;BME280;62579;47.288;18.646;2022-12-11T13:27:26;98491.34;;;2.01;80.95
74218;BME280;62579;47.288;18.646;2022-12-11T13:32:39;98480.59;;;1.80;81.41
74218;BME280;62579;47.288;18.646;2022-12-11T13:35:06;98491.16;;;1.84;81.10
74218;BME280;62579;47.288;18.646;2022-12-11T13:37:40;98500.13;;;1.81;81.58
74218;BME280;62579;47.288;18.646;2022-12-11T13:40:14;98483.03;;;1.78;81.97
74218;BME280;62579;47.288;18.646;2022-12-11T13:42:58;98513.69;;;1.72;81.75
74218;BME280;62579;47.288;18.646;2022-12-11T13:45:28;98501.47;;;1.71;81.14
74218;BME280;62579;47.288;18.646;2022-12-11T13:47:55;98506.72;;;1.80;80.86
74218;BME280;62579;47.288;18.646;2022-12-11T13:50:25;98510.72;;;1.70;81.00
74218;BME280;62579;47.288;18.646;2022-12-11T13:53:00;98508.25;;;1.66;81.46
74218;BME280;62579;47.288;18.646;2022-12-11T13:55:31;98519.41;;;1.65;81.03
74218;BME280;62579;47.288;18.646;2022-12-11T13:57:57;98517.56;;;1.71;81.56
74218;BME280;62579;47.288;18.646;2022-12-11T14:00:25;98529.69;;;1.66;80.65
74218;BME280;62579;47.288;18.646;2022-12-11T14:02:52;98519.69;;;1.67;81.05
74218;BME280;62579;47.288;18.646;2022-12-11T14:05:18;98528.97;;;1.66;81.51
74218;BME280;62579;47.288;18.646;2022-12-11T14:07:49;98534.50;;;1.62;81.52
74218;BME280;62579;47.288;18.646;2022-12-11T14:12:52;98538.59;;;1.58;80.32
74218;BME280;62579;47.288;18.646;2022-12-11T14:15:19;98536.91;;;1.60;80.60
74218;BME280;62579;47.288;18.646;2022-12-11T14:17:45;98534.00;;;1.44;81.01
74218;BME280;62579;47.288;18.646;2022-12-11T14:20:17;98527.38;;;1.39;81.58
74218;BME280;62579;47.288;18.646;2022-12-11T14:22:43;98534.56;;;1.48;81.67
74218;BME280;62579;47.288;18.646;2022-12-11T14:25:22;98530.13;;;1.45;81.92
74218;BME280;62579;47.288;18.646;2022-12-11T14:27:51;98530.13;;;1.45;80.76